Time;durP1;ratioP1;P1;durP2;ratioP2;P2;SDS_P1;SDS_P2;PMS_P1;PMS_P2;Temp;Humidity;BMP_temperature;BMP_pressure;BME280_temperature;BME280_humidity;BME280_pressure;Samples;Min_cycle;Max_cycle;Signal;HPM_P1;HPM_P2
2022/12/18 00:01:21;;;;;;;23.33;10.65;;;;;;;-12.65;100.00;98348.38;5030387;28;20725;-59
2022/12/18 00:03:48;;;;;;;19.25;10.80;;;;;;;-12.50;100.00;98344.91;5045407;28;20047;-59
2022/12/18 00:06:16;;;;;;;20.08;11.95;;;;;;;-12.32;99.17;98348.31;5042987;28;20051;-57
2022/12/18 00:08:44;;;;;;;21.80;12.43;;;;;;;-12.25;98.57;98350.63;5040090;28;20123;-59
2022/12/18 00:11:15;;;;;;;25.52;14.07;;;;;;;-12.43;98.08;98353.25;5064335;28;20064;-59
2022/12/18 00:13:42;;;;;;;22.13;10.07;;;;;;;-12.49;98.64;98356.22;5064635;28;20055;-58
2022/12/18 00:16:12;;;;;;;29.10;13.07;;;;;;;-12.33;99.25;98345.78;5037148;28;20128;-57
2022/12/18 00:18:39;;;;;;;27.02;12.13;;;;;;;-12.64;99.37;98345.69;5029282;28;20072;-56
2022/12/18 00:21:09;;;;;;;24.98;14.77;;;;;;;-12.70;100.00;98344.22;5043733;28;20045;-56
2022/12/18 00:23:37;;;;;;;27.05;11.30;;;;;;;-12.47;100.00;98343.91;5045232;28;20086;-59
2022/12/18 00:26:10;;;;;;;25.30;11.65;;;;;;;-12.29;100.00;98352.53;5046235;28;20527;-57
2022/12/18 00:28:37;;;;;;;23.38;11.80;;;;;;;-12.11;100.00;98355.06;5048708;28;20575;-58
2022/12/18 00:31:06;;;;;;;17.80;11.07;;;;;;;-12.03;100.00;98356.31;5048724;28;20458;-58
2022/12/18 00:33:33;;;;;;;36.30;11.85;;;;;;;-11.87;99.64;98350.25;5048184;28;20037;-58
2022/12/18 00:36:02;;;;;;;21.10;10.32;;;;;;;-11.81;97.10;98357.72;5048873;28;20040;-59
2022/12/18 00:38:31;;;;;;;32.00;12.68;;;;;;;-12.12;97.42;98358.59;5028666;28;20091;-58
2022/12/18 00:40:58;;;;;;;27.60;12.45;;;;;;;-12.21;98.87;98360.78;5026850;28;20069;-56
2022/12/18 00:43:24;;;;;;;31.05;14.63;;;;;;;-12.16;99.32;98358.75;5029255;28;20056;-58
2022/12/18 00:45:52;;;;;;;17.77;11.40;;;;;;;-12.07;99.38;98361.78;5039832;28;20178;-55
2022/12/18 00:48:19;;;;;;;31.40;15.75;;;;;;;-12.32;98.48;98348.31;5047564;28;20580;-59
2022/12/18 00:50:46;;;;;;;33.92;16.15;;;;;;;-12.19;99.94;98355.47;5048230;28;20106;-59
2022/12/18 00:53:13;;;;;;;38.00;18.92;;;;;;;-12.27;100.00;98355.91;5049086;28;20041;-58
2022/12/18 00:55:40;;;;;;;38.45;17.98;;;;;;;-12.30;100.00;98366.50;5049689;28;20084;-58
2022/12/18 00:58:08;;;;;;;34.20;17.15;;;;;;;-12.50;100.00;98359.75;5048043;28;20037;-59
2022/12/18 01:00:35;;;;;;;25.42;13.40;;;;;;;-12.29;99.33;98363.81;5048386;28;20045;-59
2022/12/18 01:03:02;;;;;;;27.92;13.20;;;;;;;-12.08;97.46;98365.34;5048267;28;20504;-59
2022/12/18 01:05:29;;;;;;;20.00;10.00;;;;;;;-12.15;96.54;98352.63;5049011;28;20044;-57
2022/12/18 01:07:56;;;;;;;17.77;10.30;;;;;;;-12.05;94.84;98345.09;5031733;28;20076;-58
2022/12/18 01:10:24;;;;;;;27.50;13.30;;;;;;;-12.57;95.37;98356.63;5067191;28;20048;-59
2022/12/18 01:12:51;;;;;;;24.48;11.05;;;;;;;-12.77;96.27;98353.28;5067821;28;20839;-57
2022/12/18 01:15:18;;;;;;;22.75;12.85;;;;;;;-13.04;96.46;98356.41;5058933;28;20640;-58
2022/12/18 01:17:45;;;;;;;19.17;10.05;;;;;;;-13.07;96.53;98367.00;5047869;28;20045;-56
2022/12/18 01:20:13;;;;;;;23.70;11.77;;;;;;;-13.07;96.76;98372.22;5033703;28;20049;-58
2022/12/18 01:22:39;;;;;;;25.40;13.80;;;;;;;-13.11;97.85;98366.31;5034679;28;20440;-59
2022/12/18 01:25:07;;;;;;;22.38;11.00;;;;;;;-13.02;97.70;98362.38;5049223;28;20627;-55
2022/12/18 01:27:34;;;;;;;16.67;8.82;;;;;;;-12.87;97.47;98352.09;5047736;28;20519;-56
2022/12/18 01:30:03;;;;;;;17.92;11.15;;;;;;;-12.62;96.88;98356.00;5047642;28;20052;-57
2022/12/18 01:32:31;;;;;;;17.00;8.43;;;;;;;-12.46;95.24;98350.84;5047513;28;20644;-56
2022/12/18 01:34:58;;;;;;;15.27;8.73;;;;;;;-12.47;94.23;98354.34;5047856;28;20782;-57
2022/12/18 01:37:26;;;;;;;16.23;7.97;;;;;;;-12.26;93.94;98360.19;5040202;28;20102;-58
2022/12/18 01:39:54;;;;;;;26.63;12.45;;;;;;;-12.06;93.31;98358.28;5048952;28;20524;-57
2022/12/18 01:42:21;;;;;;;29.55;14.43;;;;;;;-12.15;92.04;98363.06;5046870;28;20067;-57
2022/12/18 01:44:57;;;;;;;19.40;12.57;;;;;;;-12.02;91.80;98362.38;5041999;28;20124;-59
2022/12/18 01:47:46;;;;;;;21.90;10.40;;;;;;;-12.06;91.69;98366.13;5045203;28;20057;-58
2022/12/18 01:50:33;;;;;;;20.52;10.48;;;;;;;-12.27;92.65;98345.47;5038861;28;20071;-58
2022/12/18 01:53:16;;;;;;;22.30;11.98;;;;;;;-12.48;93.76;98342.22;5046614;28;20055;-58
2022/12/18 01:55:50;;;;;;;25.58;10.98;;;;;;;-12.47;93.32;98338.69;5042364;28;20520;-55
2022/12/18 01:58:19;;;;;;;18.52;9.75;;;;;;;-12.26;93.65;98344.53;5027192;28;20069;-59
2022/12/18 02:00:46;;;;;;;17.98;9.68;;;;;;;-12.21;94.30;98345.13;5035227;28;20045;-55
2022/12/18 02:03:13;;;;;;;24.77;12.35;;;;;;;-12.10;96.32;98362.81;5046747;28;20033;-59
2022/12/18 02:05:55;;;;;;;22.00;12.02;;;;;;;-11.92;93.87;98360.94;5047733;28;20094;-59
2022/12/18 02:08:26;;;;;;;;;;;;;;;-11.81;93.74;98357.72;5044089;28;20045;-57
2022/12/18 02:10:59;;;;;;;20.75;10.27;;;;;;;-11.85;95.24;98360.56;5037214;28;19950;-57
2022/12/18 02:13:46;;;;;;;21.42;10.68;;;;;;;-12.34;92.26;98363.22;5053132;28;20532;-57
2022/12/18 02:16:35;;;;;;;20.15;9.85;;;;;;;-12.53;95.00;98360.75;5045488;28;20057;-58
2022/12/18 02:19:31;;;;;;;20.90;9.57;;;;;;;-12.38;96.91;98353.88;5047611;28;20094;-57
2022/12/18 02:22:07;;;;;;;17.75;10.75;;;;;;;-12.11;98.27;98363.75;5043886;28;20044;-57
2022/12/18 02:24:55;;;;;;;24.42;13.38;;;;;;;-11.73;98.21;98362.50;5044471;28;20120;-58
2022/12/18 02:27:22;;;;;;;31.33;14.23;;;;;;;-11.93;98.55;98361.00;5046050;28;20032;-58
2022/12/18 02:29:55;;;;;;;33.78;14.00;;;;;;;-11.66;98.56;98350.78;5026907;28;20038;-56
2022/12/18 02:32:32;;;;;;;27.75;12.82;;;;;;;-11.45;98.47;98342.66;5029114;28;20064;-57
2022/12/18 02:35:01;;;;;;;37.28;18.02;;;;;;;-11.12;100.00;98349.47;5039386;28;20471;-58
2022/12/18 02:37:32;;;;;;;25.65;13.27;;;;;;;-11.08;100.00;98359.72;5045894;28;20045;-57
2022/12/18 02:40:03;;;;;;;24.60;13.18;;;;;;;-10.75;100.00;98345.56;5045034;28;20583;-56
2022/12/18 02:42:32;;;;;;;34.13;15.33;;;;;;;-10.67;98.21;98350.34;5024097;28;20103;-57
2022/12/18 02:45:00;;;;;;;20.95;10.80;;;;;;;-10.71;95.62;98352.31;5032823;28;20361;-58
2022/12/18 02:47:35;;;;;;;21.23;10.77;;;;;;;-10.72;98.31;98359.31;5045280;28;20242;-59
2022/12/18 02:50:02;;;;;;;20.17;10.77;;;;;;;-10.45;100.00;98360.34;5046960;28;20048;-56
2022/12/18 02:53:00;;;;;;;32.05;15.13;;;;;;;-10.38;99.88;98355.53;5044128;28;20041;-59
2022/12/18 02:55:36;;;;;;;25.70;11.85;;;;;;;-10.27;99.80;98362.72;5047052;28;20044;-59
2022/12/18 02:58:46;;;;;;;23.75;13.25;;;;;;;-10.22;99.33;98363.28;5044524;28;20044;-60
2022/12/18 03:01:41;;;;;;;29.73;15.35;;;;;;;-10.14;98.95;98360.19;5037430;28;20438;-56
2022/12/18 03:04:16;;;;;;;23.30;13.73;;;;;;;-10.25;99.88;98353.84;5043216;28;20761;-59
2022/12/18 03:06:48;;;;;;;24.50;11.77;;;;;;;-10.18;100.00;98356.91;5045074;28;20072;-59
2022/12/18 03:09:26;;;;;;;31.20;15.05;;;;;;;-10.32;99.65;98363.84;5044341;28;20098;-59
2022/12/18 03:12:22;;;;;;;21.63;12.35;;;;;;;-10.31;99.83;98370.75;5043396;28;20045;-59
2022/12/18 03:14:56;;;;;;;26.77;12.52;;;;;;;-10.23;99.54;98370.31;5045691;28;20535;-59
2022/12/18 03:17:26;;;;;;;27.25;14.27;;;;;;;-10.17;98.49;98361.22;5045474;28;20073;-58
2022/12/18 03:19:58;;;;;;;23.63;11.13;;;;;;;-10.15;98.30;98358.53;5043934;28;20068;-59
2022/12/18 03:22:28;;;;;;;28.75;14.00;;;;;;;-10.33;98.05;98358.72;5042525;28;20102;-57
2022/12/18 03:24:57;;;;;;;32.50;15.80;;;;;;;-10.47;98.74;98372.69;5044953;28;20041;-58
2022/12/18 03:27:28;;;;;;;23.25;12.05;;;;;;;-10.50;98.83;98381.59;5044429;28;20809;-60
2022/12/18 03:30:08;;;;;;;34.50;16.60;;;;;;;-10.71;98.93;98379.31;5015466;28;20045;-59
2022/12/18 03:33:12;;;;;;;27.75;15.65;;;;;;;-10.77;99.86;98373.63;5037364;28;20041;-57
2022/12/18 03:35:43;;;;;;;33.67;16.08;;;;;;;-10.85;100.00;98369.69;5038124;28;20061;-56
2022/12/18 03:38:12;;;;;;;23.25;13.93;;;;;;;-10.85;100.00;98374.06;5026591;28;20654;-57
2022/12/18 03:40:42;;;;;;;36.10;15.55;;;;;;;-11.08;100.00;98371.03;5039252;28;20045;-57
2022/12/18 03:43:34;;;;;;;31.55;14.63;;;;;;;-11.20;100.00;98371.75;5044425;28;20029;-58
2022/12/18 03:46:11;;;;;;;25.42;10.80;;;;;;;-11.31;100.00;98369.75;5046265;28;20501;-59
2022/12/18 03:48:44;;;;;;;33.22;16.52;;;;;;;-11.30;100.00;98379.28;5046706;28;20102;-58
2022/12/18 03:51:23;;;;;;;25.25;14.40;;;;;;;-11.29;100.00;98383.56;5040652;28;20148;-56
2022/12/18 03:53:56;;;;;;;23.23;12.57;;;;;;;-11.24;100.00;98384.19;5044302;28;20137;-57
2022/12/18 03:56:35;;;;;;;35.20;19.48;;;;;;;-11.32;100.00;98375.94;5043913;28;20049;-56
2022/12/18 03:59:04;;;;;;;38.90;19.63;;;;;;;-11.36;100.00;98370.00;5044022;28;20048;-56
2022/12/18 04:01:35;;;;;;;29.85;16.42;;;;;;;-11.35;100.00;98371.72;5042074;28;20759;-57
2022/12/18 04:04:04;;;;;;;33.83;15.98;;;;;;;-11.52;100.00;98368.31;5043741;28;20102;-59
2022/12/18 04:06:35;;;;;;;23.52;14.88;;;;;;;-11.55;100.00;98365.00;5039664;28;20056;-58
2022/12/18 04:09:02;;;;;;;27.65;14.32;;;;;;;-11.55;100.00;98367.63;5041997;28;20045;-55
2022/12/18 04:11:31;;;;;;;29.02;15.52;;;;;;;-11.50;100.00;98379.50;5059755;28;20061;-58
2022/12/18 04:13:59;;;;;;;33.60;17.58;;;;;;;-11.53;100.00;98371.84;5044718;28;20051;-58
2022/12/18 04:16:28;;;;;;;27.17;13.55;;;;;;;-11.64;100.00;98379.44;5033841;28;20045;-56
2022/12/18 04:18:58;;;;;;;32.67;13.60;;;;;;;-11.86;100.00;98387.63;5030368;28;20771;-58
2022/12/18 04:21:29;;;;;;;28.15;12.88;;;;;;;-11.97;100.00;98378.63;5042757;28;20044;-57
2022/12/18 04:23:55;;;;;;;21.90;12.88;;;;;;;-11.96;100.00;98384.69;5045629;28;20466;-53
2022/12/18 04:26:22;;;;;;;27.35;12.13;;;;;;;-11.92;100.00;98387.06;5045736;28;20039;-54
2022/12/18 04:28:58;;;;;;;30.38;13.73;;;;;;;-11.81;100.00;98389.06;5041806;28;20630;-54
2022/12/18 04:31:25;;;;;;;24.48;10.48;;;;;;;-11.80;100.00;98385.50;5042777;28;20053;-58
2022/12/18 04:33:52;;;;;;;23.50;11.88;;;;;;;-11.69;100.00;98381.47;5043890;28;20153;-56
2022/12/18 04:36:19;;;;;;;22.15;12.32;;;;;;;-11.65;100.00;98375.97;5041322;28;20056;-59
2022/12/18 04:38:46;;;;;;;20.77;11.95;;;;;;;-11.46;97.65;98367.13;5023925;28;20046;-58
2022/12/18 04:41:15;;;;;;;19.13;10.38;;;;;;;-11.37;98.61;98373.56;5022211;28;20708;-57
2022/12/18 04:43:44;;;;;;;21.23;12.05;;;;;;;-11.34;96.74;98362.94;5025751;28;20045;-58
2022/12/18 04:46:11;;;;;;;23.80;12.30;;;;;;;-11.38;95.39;98362.28;5045709;28;20627;-58
2022/12/18 04:48:38;;;;;;;19.63;11.43;;;;;;;-11.38;96.31;98364.06;5046034;28;20048;-58
2022/12/18 04:51:06;;;;;;;18.85;10.93;;;;;;;-11.26;97.04;98373.81;5044166;28;20087;-59
2022/12/18 04:53:32;;;;;;;27.88;12.00;;;;;;;-11.27;97.80;98356.44;5045443;28;20052;-58
2022/12/18 04:56:17;;;;;;;24.17;11.27;;;;;;;-11.26;96.98;98357.25;5045798;28;20084;-57
2022/12/18 04:58:44;;;;;;;31.50;11.75;;;;;;;-11.88;93.07;98365.06;5045538;28;20679;-59
2022/12/18 05:01:12;;;;;;;21.50;10.95;;;;;;;-12.51;96.64;98361.50;5043965;28;20041;-56
2022/12/18 05:03:39;;;;;;;25.50;12.10;;;;;;;-12.93;95.91;98356.69;5044851;28;20041;-58
2022/12/18 05:06:07;;;;;;;20.55;10.73;;;;;;;-12.93;98.54;98367.13;5044465;28;20056;-55
2022/12/18 05:08:34;;;;;;;24.45;12.65;;;;;;;-13.17;96.77;98387.47;5033990;28;20047;-59
2022/12/18 05:11:08;;;;;;;20.30;11.50;;;;;;;-13.61;96.30;98383.53;5063103;28;20048;-57
2022/12/18 05:13:37;;;;;;;19.77;9.88;;;;;;;-13.73;97.21;98375.44;5054471;28;20045;-59
2022/12/18 05:16:05;;;;;;;16.80;8.75;;;;;;;-13.80;98.12;98383.59;5049291;28;20048;-57
2022/12/18 05:18:32;;;;;;;26.38;11.02;;;;;;;-13.40;98.96;98386.00;5046454;28;20524;-58
2022/12/18 05:20:58;;;;;;;18.35;8.15;;;;;;;-13.47;95.52;98388.06;5033011;28;20539;-59
2022/12/18 05:23:25;;;;;;;24.38;11.00;;;;;;;-13.50;96.71;98386.47;5049018;28;20047;-57
2022/12/18 05:25:57;;;;;;;15.95;8.40;;;;;;;-13.53;98.62;98386.63;5049285;28;20052;-56
2022/12/18 05:28:26;;;;;;;21.77;8.40;;;;;;;-13.03;97.20;98396.34;5048682;28;20037;-57
2022/12/18 05:30:55;;;;;;;20.92;10.88;;;;;;;-13.06;95.73;98403.41;5046625;28;20569;-57
2022/12/18 05:33:24;;;;;;;17.30;9.50;;;;;;;-12.76;97.26;98403.72;5048616;28;20658;-54
2022/12/18 05:35:55;;;;;;;23.25;11.75;;;;;;;-12.38;98.30;98406.09;5048955;28;20044;-58
2022/12/18 05:38:23;;;;;;;23.63;11.00;;;;;;;-12.20;97.25;98395.59;5041549;28;20520;-55
2022/12/18 05:40:51;;;;;;;21.50;10.48;;;;;;;-12.08;99.60;98392.31;5046518;28;20041;-56
2022/12/18 05:43:19;;;;;;;17.25;9.60;;;;;;;-12.17;98.36;98398.84;5048709;28;20065;-57
2022/12/18 05:45:47;;;;;;;21.00;11.00;;;;;;;-11.89;100.00;98391.25;5048824;28;20115;-60
2022/12/18 05:48:15;;;;;;;21.95;10.55;;;;;;;-11.64;100.00;98390.72;5048081;28;20523;-57
2022/12/18 05:50:45;;;;;;;25.17;11.13;;;;;;;-11.46;100.00;98385.41;5027680;28;20067;-57
2022/12/18 05:53:13;;;;;;;21.83;11.23;;;;;;;-11.16;100.00;98384.56;5036307;28;20041;-59
2022/12/18 05:55:40;;;;;;;26.77;12.20;;;;;;;-11.19;100.00;98383.91;5048044;28;20520;-58
2022/12/18 05:58:09;;;;;;;25.13;10.75;;;;;;;-11.00;100.00;98394.13;5047570;28;20052;-59
2022/12/18 06:00:41;;;;;;;30.40;13.90;;;;;;;-10.79;100.00;98391.19;5046899;28;20048;-58
2022/12/18 06:03:09;;;;;;;23.33;11.73;;;;;;;-10.70;100.00;98393.25;5044098;28;20045;-59
2022/12/18 06:05:37;;;;;;;23.45;11.80;;;;;;;-10.71;100.00;98381.94;5041298;28;20065;-56
2022/12/18 06:08:04;;;;;;;26.67;11.55;;;;;;;-10.52;100.00;98382.59;5047468;28;20647;-59
2022/12/18 06:10:31;;;;;;;34.03;14.35;;;;;;;-10.43;100.00;98386.41;5066517;28;20131;-59
2022/12/18 06:12:58;;;;;;;50.28;21.88;;;;;;;-10.06;100.00;98390.19;5067593;28;20056;-58
2022/12/18 06:15:24;;;;;;;27.45;13.85;;;;;;;-10.23;100.00;98379.94;5068002;28;20076;-59
2022/12/18 06:17:51;;;;;;;27.98;13.48;;;;;;;-10.11;100.00;98384.41;5066609;28;20074;-56
2022/12/18 06:20:18;;;;;;;31.63;14.98;;;;;;;-10.01;100.00;98389.94;5048009;28;20045;-59
2022/12/18 06:22:45;;;;;;;26.92;12.40;;;;;;;-9.93;100.00;98385.06;5044822;28;20091;-59
2022/12/18 06:25:11;;;;;;;30.48;14.13;;;;;;;-9.93;100.00;98387.66;5047843;28;20119;-58
2022/12/18 06:27:38;;;;;;;35.30;14.20;;;;;;;-9.80;100.00;98405.25;5047327;28;20123;-60
2022/12/18 06:30:05;;;;;;;21.77;11.35;;;;;;;-9.83;100.00;98402.81;5047777;28;20128;-58
2022/12/18 06:32:32;;;;;;;25.48;11.70;;;;;;;-10.19;100.00;98399.75;5045145;28;20045;-56
2022/12/18 06:34:59;;;;;;;34.13;13.02;;;;;;;-10.20;100.00;98398.09;5048001;28;20044;-58
2022/12/18 06:37:25;;;;;;;29.95;14.73;;;;;;;-10.07;100.00;98396.38;5033835;28;20493;-58
2022/12/18 06:39:53;;;;;;;24.55;12.73;;;;;;;-10.03;100.00;98397.03;5027247;28;20045;-58
2022/12/18 06:42:23;;;;;;;33.75;14.38;;;;;;;-9.96;100.00;98393.09;5024640;28;20417;-59
2022/12/18 06:44:50;;;;;;;28.60;13.77;;;;;;;-9.84;100.00;98393.28;5027712;28;20065;-57
2022/12/18 06:47:17;;;;;;;24.27;11.23;;;;;;;-9.78;100.00;98400.72;5043750;28;20041;-56
2022/12/18 06:49:43;;;;;;;25.83;11.75;;;;;;;-9.75;100.00;98402.31;5048040;28;20052;-55
2022/12/18 06:52:10;;;;;;;34.35;14.70;;;;;;;-9.89;100.00;98409.28;5038647;28;20051;-59
2022/12/18 06:54:36;;;;;;;35.22;13.35;;;;;;;-9.87;100.00;98415.28;5042494;28;20037;-57
2022/12/18 06:57:03;;;;;;;31.70;11.52;;;;;;;-9.88;100.00;98415.38;5044703;28;20106;-59
2022/12/18 06:59:29;;;;;;;29.10;11.90;;;;;;;-9.87;100.00;98417.03;5046594;28;20455;-58
2022/12/18 07:01:56;;;;;;;30.40;12.38;;;;;;;-9.86;100.00;98419.56;5044099;28;20231;-58
2022/12/18 07:04:29;;;;;;;37.28;12.32;;;;;;;-9.97;100.00;98422.00;5047027;28;20041;-58
2022/12/18 07:06:55;;;;;;;29.27;11.50;;;;;;;-9.85;100.00;98425.66;5042347;28;20041;-60
2022/12/18 07:09:22;;;;;;;32.00;12.77;;;;;;;-9.86;100.00;98434.44;5044731;28;20045;-58
2022/12/18 07:11:48;;;;;;;25.85;12.18;;;;;;;-10.12;100.00;98422.03;5043671;28;20048;-58
2022/12/18 07:14:15;;;;;;;28.08;11.68;;;;;;;-10.27;100.00;98423.81;5046510;28;20548;-58
2022/12/18 07:16:41;;;;;;;30.17;12.32;;;;;;;-10.04;100.00;98431.22;5042360;28;20124;-55
2022/12/18 07:19:08;;;;;;;24.98;11.48;;;;;;;-10.22;100.00;98432.22;5037631;28;20037;-59
2022/12/18 07:21:34;;;;;;;26.38;12.02;;;;;;;-10.20;100.00;98435.63;5044109;28;20060;-59
2022/12/18 07:24:01;;;;;;;29.98;12.93;;;;;;;-10.37;100.00;98434.00;5046138;28;20033;-58
2022/12/18 07:26:27;;;;;;;29.60;12.55;;;;;;;-10.25;100.00;98423.72;5046144;28;20060;-55
2022/12/18 07:28:56;;;;;;;33.17;14.85;;;;;;;-10.34;100.00;98436.44;5046545;28;20132;-58
2022/12/18 07:31:23;;;;;;;30.60;13.45;;;;;;;-10.27;100.00;98434.28;5044031;28;20080;-58
2022/12/18 07:33:50;;;;;;;28.42;13.48;;;;;;;-10.27;100.00;98438.69;5034031;28;20045;-59
2022/12/18 07:36:17;;;;;;;24.90;11.45;;;;;;;-10.43;99.86;98438.78;5041437;28;20727;-57
2022/12/18 07:38:48;;;;;;;25.83;11.48;;;;;;;-10.43;100.00;98436.16;5024432;28;20049;-57
2022/12/18 07:41:15;;;;;;;31.45;12.57;;;;;;;-10.65;97.67;98440.94;5023667;28;20042;-58
2022/12/18 07:43:42;;;;;;;28.20;11.50;;;;;;;-10.64;99.57;98436.53;5024618;28;20041;-59
2022/12/18 07:46:10;;;;;;;24.83;11.68;;;;;;;-10.60;98.96;98438.88;5028500;28;20052;-56
2022/12/18 07:48:40;;;;;;;27.98;12.52;;;;;;;-10.80;97.62;98442.66;5042535;28;20064;-58
2022/12/18 07:51:07;;;;;;;26.52;12.05;;;;;;;-10.52;97.95;98437.56;5027530;28;20073;-56
2022/12/18 07:53:35;;;;;;;27.00;11.68;;;;;;;-10.29;98.71;98440.56;5029222;28;20039;-59
2022/12/18 07:56:07;;;;;;;22.55;11.85;;;;;;;-10.06;99.60;98432.13;5045836;28;20041;-56
2022/12/18 07:58:54;;;;;;;26.25;11.68;;;;;;;-9.83;97.95;98442.97;5046381;28;20102;-55
2022/12/18 08:01:21;;;;;;;22.00;11.73;;;;;;;-9.74;96.94;98435.47;5043450;28;20055;-58
2022/12/18 08:03:48;;;;;;;24.67;11.02;;;;;;;-9.56;96.46;98439.53;5046392;28;20041;-56
2022/12/18 08:06:17;;;;;;;24.85;12.63;;;;;;;-9.48;97.38;98435.59;5043590;28;20505;-56
2022/12/18 08:08:44;;;;;;;32.45;13.88;;;;;;;-9.42;96.45;98436.03;5028365;28;20106;-57
2022/12/18 08:11:11;;;;;;;29.23;12.20;;;;;;;-9.38;95.58;98452.41;5040218;28;20120;-57
2022/12/18 08:13:38;;;;;;;25.42;12.20;;;;;;;-9.43;96.47;98454.50;5042073;28;20045;-57
2022/12/18 08:16:07;;;;;;;20.08;9.98;;;;;;;-9.50;96.61;98453.19;5043344;28;20049;-56
2022/12/18 08:18:35;;;;;;;26.85;11.48;;;;;;;-9.54;96.76;98458.63;5044565;28;20120;-56
2022/12/18 08:21:12;;;;;;;29.98;13.13;;;;;;;-9.54;98.26;98456.00;5029906;28;20045;-59
2022/12/18 08:23:39;;;;;;;25.00;11.35;;;;;;;-9.44;98.14;98447.56;5042931;28;20088;-54
2022/12/18 08:26:10;;;;;;;27.05;11.15;;;;;;;-9.46;97.49;98455.53;5045814;28;20051;-59
2022/12/18 08:28:37;;;;;;;30.17;12.02;;;;;;;-9.20;98.34;98454.78;5045377;28;20076;-55
2022/12/18 08:31:03;;;;;;;28.08;11.63;;;;;;;-9.05;96.32;98451.19;5044323;28;20167;-57
2022/12/18 08:33:31;;;;;;;27.13;12.55;;;;;;;-8.98;97.12;98451.63;5041892;28;20037;-55
2022/12/18 08:36:01;;;;;;;26.02;11.63;;;;;;;-8.97;96.75;98444.56;5044511;28;20033;-55
2022/12/18 08:38:28;;;;;;;27.90;12.25;;;;;;;-9.25;95.37;98455.09;5035170;28;20037;-58
2022/12/18 08:41:06;;;;;;;28.13;13.18;;;;;;;-9.30;97.21;98457.16;5053123;28;20391;-46
2022/12/18 08:46:19;;;;;;;26.42;12.98;;;;;;;-8.85;98.13;98453.44;5045129;28;20091;-59
2022/12/18 08:48:46;;;;;;;28.13;12.63;;;;;;;-8.76;97.39;98450.19;5049171;28;20111;-57
2022/12/18 08:51:16;;;;;;;29.08;13.52;;;;;;;-8.59;97.67;98446.41;5047642;28;20080;-56
2022/12/18 08:53:44;;;;;;;27.52;12.02;;;;;;;-8.46;96.29;98440.31;5049466;28;20429;-56
2022/12/18 08:56:12;;;;;;;30.42;13.40;;;;;;;-8.38;95.80;98435.38;5048609;28;20052;-56
2022/12/18 08:58:39;;;;;;;29.08;12.95;;;;;;;-8.18;95.74;98436.66;5047861;28;20075;-57
2022/12/18 09:01:09;;;;;;;24.83;12.00;;;;;;;-8.22;95.86;98430.75;5048147;28;20049;-56
2022/12/18 09:03:35;;;;;;;27.65;11.98;;;;;;;-8.11;96.38;98431.81;5048286;28;20076;-58
2022/12/18 09:06:03;;;;;;;39.25;18.40;;;;;;;-8.12;95.81;98430.94;5046323;28;20573;-56
2022/12/18 09:08:29;;;;;;;36.33;15.02;;;;;;;-8.00;95.93;98428.44;5048783;28;20064;-52
2022/12/18 09:10:56;;;;;;;43.95;19.63;;;;;;;-7.85;95.79;98427.31;5047389;28;20055;-57
2022/12/18 09:13:23;;;;;;;27.48;13.60;;;;;;;-7.82;95.65;98421.00;5048876;28;20045;-56
2022/12/18 09:15:53;;;;;;;27.13;11.05;;;;;;;-7.72;95.36;98415.94;5049185;28;20077;-53
2022/12/18 09:18:22;;;;;;;29.23;11.30;;;;;;;-7.59;96.54;98411.47;5048521;28;20072;-58
2022/12/18 09:20:51;;;;;;;27.65;12.55;;;;;;;-7.54;95.38;98412.94;5032085;28;20048;-56
2022/12/18 09:23:18;;;;;;;30.98;12.88;;;;;;;-7.40;96.30;98415.41;5049229;28;20098;-54
2022/12/18 09:25:45;;;;;;;26.20;11.00;;;;;;;-7.35;94.95;98412.44;5047825;28;20124;-56
2022/12/18 09:28:14;;;;;;;26.52;12.05;;;;;;;-7.23;93.95;98408.09;5049048;28;20079;-52
2022/12/18 09:30:43;;;;;;;24.13;10.95;;;;;;;-7.15;94.31;98410.16;5047636;28;20095;-54
2022/12/18 09:33:10;;;;;;;30.20;13.05;;;;;;;-7.01;93.81;98407.31;5048195;28;20041;-55
2022/12/18 09:35:39;;;;;;;25.33;12.18;;;;;;;-6.99;93.50;98409.84;5049451;28;20638;-55
2022/12/18 09:38:06;;;;;;;27.67;11.90;;;;;;;-6.96;93.77;98407.81;5034978;28;20047;-53
2022/12/18 09:40:39;;;;;;;25.70;12.82;;;;;;;-6.91;94.91;98415.38;5046003;28;20056;-56
2022/12/18 09:43:06;;;;;;;28.85;11.65;;;;;;;-6.82;94.58;98408.59;5046087;28;20077;-54
2022/12/18 09:45:44;;;;;;;28.80;12.60;;;;;;;-6.82;95.36;98413.84;5049330;28;20063;-57
2022/12/18 09:48:25;;;;;;;30.40;13.50;;;;;;;-6.93;95.70;98417.28;5032739;28;20049;-56
2022/12/18 09:50:57;;;;;;;24.33;11.13;;;;;;;-6.68;95.19;98416.28;5034902;28;20673;-53
2022/12/18 09:53:27;;;;;;;22.60;10.60;;;;;;;-6.52;94.57;98412.50;5037521;28;20073;-55
2022/12/18 09:55:56;;;;;;;25.70;12.20;;;;;;;-6.51;93.17;98411.53;5036369;28;20053;-55
2022/12/18 09:58:31;;;;;;;22.15;10.45;;;;;;;-6.43;93.49;98413.56;5036706;28;20552;-53
2022/12/18 10:00:58;;;;;;;27.55;10.43;;;;;;;-6.40;92.05;98416.81;5038208;28;20461;-53
2022/12/18 10:03:25;;;;;;;23.17;11.00;;;;;;;-6.40;91.94;98419.47;5035284;28;20116;-53
2022/12/18 10:06:00;;;;;;;27.20;10.90;;;;;;;-6.19;92.58;98417.91;5036423;28;20690;-53
2022/12/18 10:08:43;;;;;;;25.65;12.18;;;;;;;-6.31;92.32;98420.53;5047843;28;20082;-56
2022/12/18 10:11:34;;;;;;;26.38;11.45;;;;;;;-6.35;92.54;98427.00;5045490;28;20578;-55
2022/12/18 10:14:17;;;;;;;29.33;12.05;;;;;;;-6.14;91.98;98429.78;5027488;28;20065;-54
2022/12/18 10:17:00;;;;;;;32.08;12.90;;;;;;;-6.17;91.49;98430.03;5048657;28;20045;-53
2022/12/18 10:19:39;;;;;;;26.77;11.30;;;;;;;-5.95;92.54;98430.94;5048288;28;20041;-52
2022/12/18 10:22:28;;;;;;;28.55;12.05;;;;;;;-5.87;90.19;98431.19;5046098;28;20640;-52
2022/12/18 10:25:17;;;;;;;24.25;11.60;;;;;;;-5.78;90.35;98431.44;5047651;28;20086;-52
2022/12/18 10:27:43;;;;;;;27.80;11.95;;;;;;;-5.74;89.30;98430.22;5047513;28;20041;-52
2022/12/18 10:30:20;;;;;;;29.02;11.52;;;;;;;-5.75;89.67;98425.91;5047611;28;20068;-52
2022/12/18 10:32:47;;;;;;;25.38;12.35;;;;;;;-5.77;90.25;98418.13;5045626;28;20049;-52
2022/12/18 10:35:20;;;;;;;27.63;12.93;;;;;;;-5.71;90.17;98426.50;5047297;28;20167;-57
2022/12/18 10:38:07;;;;;;;25.92;11.88;;;;;;;-5.74;90.32;98420.50;5032123;28;20057;-53
2022/12/18 10:40:49;;;;;;;28.45;12.45;;;;;;;-5.54;90.60;98425.13;5034494;28;20498;-56
2022/12/18 10:43:24;;;;;;;25.25;12.15;;;;;;;-5.50;89.71;98430.06;5029906;28;20077;-56
2022/12/18 10:46:09;;;;;;;25.20;11.38;;;;;;;-5.34;89.54;98426.19;5042023;28;20044;-57
2022/12/18 10:48:48;;;;;;;30.20;12.45;;;;;;;-5.16;89.43;98438.88;5038450;28;20075;-54
2022/12/18 10:51:22;;;;;;;27.92;11.75;;;;;;;-5.11;89.04;98437.53;5035085;28;20079;-52
2022/12/18 10:53:56;;;;;;;30.17;11.18;;;;;;;-5.03;89.05;98431.59;5033020;28;20452;-54
2022/12/18 10:56:25;;;;;;;24.77;10.55;;;;;;;-4.72;88.89;98430.88;5040555;28;20052;-54
2022/12/18 10:58:58;;;;;;;30.33;13.27;;;;;;;-4.77;88.79;98418.03;5033360;28;20040;-55
2022/12/18 11:01:25;;;;;;;28.83;12.45;;;;;;;-4.71;87.25;98416.69;5031538;28;20742;-55
2022/12/18 11:03:55;;;;;;;26.33;11.50;;;;;;;-4.68;87.27;98416.44;5034375;28;20069;-55
2022/12/18 11:06:28;;;;;;;27.17;10.77;;;;;;;-4.57;86.97;98403.16;5036317;28;20072;-57
2022/12/18 11:09:08;;;;;;;28.67;10.65;;;;;;;-4.46;87.10;98401.41;5036617;28;20107;-55
2022/12/18 11:11:41;;;;;;;24.90;11.05;;;;;;;-4.54;87.15;98388.00;5023596;28;20564;-55
2022/12/18 11:14:20;;;;;;;27.05;12.50;;;;;;;-4.57;88.16;98400.50;5025139;28;20448;-54
2022/12/18 11:16:48;;;;;;;24.17;11.52;;;;;;;-4.66;87.71;98403.09;5024070;28;20049;-56
2022/12/18 11:19:41;;;;;;;26.30;11.30;;;;;;;-4.43;87.19;98409.06;5039588;28;20119;-57
2022/12/18 11:22:30;;;;;;;29.15;12.02;;;;;;;-4.52;88.30;98407.22;5032440;28;20504;-57
2022/12/18 11:25:17;;;;;;;29.83;11.20;;;;;;;-4.50;88.23;98406.13;5036100;28;20059;-56
2022/12/18 11:28:05;;;;;;;24.23;10.55;;;;;;;-4.34;87.53;98402.19;5035102;28;20494;-56
2022/12/18 11:30:33;;;;;;;23.85;10.48;;;;;;;-4.15;87.57;98406.72;5034456;28;20037;-56